sensor_id;sensor_type;location;lat;lon;timestamp;temperature;humidity
8105;DHT22;4095;48.942;9.104;2023-04-27T00:02:24;10.50;99.90
8105;DHT22;4095;48.942;9.104;2023-04-27T00:04:50;10.50;99.90
8105;DHT22;4095;48.942;9.104;2023-04-27T00:07:16;10.50;99.90
8105;DHT22;4095;48.942;9.104;2023-04-27T00:09:41;10.50;99.90
8105;DHT22;4095;48.942;9.104;2023-04-27T00:12:07;10.50;99.90
8105;DHT22;4095;48.942;9.104;2023-04-27T00:14:33;10.40;99.90
8105;DHT22;4095;48.942;9.104;2023-04-27T00:16:58;10.40;99.90
8105;DHT22;4095;48.942;9.104;2023-04-27T00:19:24;10.40;99.90
8105;DHT22;4095;48.942;9.104;2023-04-27T00:21:50;10.30;99.90
8105;DHT22;4095;48.942;9.104;2023-04-27T00:24:16;10.30;99.90
8105;DHT22;4095;48.942;9.104;2023-04-27T00:26:42;10.30;99.90
8105;DHT22;4095;48.942;9.104;2023-04-27T00:29:07;10.30;99.90
8105;DHT22;4095;48.942;9.104;2023-04-27T00:31:33;10.30;99.90
8105;DHT22;4095;48.942;9.104;2023-04-27T00:33:58;10.30;99.90
8105;DHT22;4095;48.942;9.104;2023-04-27T00:36:24;10.20;99.90
8105;DHT22;4095;48.942;9.104;2023-04-27T00:38:49;10.20;99.90
8105;DHT22;4095;48.942;9.104;2023-04-27T00:41:15;10.20;99.90
8105;DHT22;4095;48.942;9.104;2023-04-27T00:43:42;10.20;99.90
8105;DHT22;4095;48.942;9.104;2023-04-27T00:46:09;10.20;99.90
8105;DHT22;4095;48.942;9.104;2023-04-27T00:48:36;10.20;99.90
8105;DHT22;4095;48.942;9.104;2023-04-27T00:51:01;10.20;99.90
8105;DHT22;4095;48.942;9.104;2023-04-27T00:53:27;10.10;99.90
8105;DHT22;4095;48.942;9.104;2023-04-27T00:55:53;10.10;99.90
8105;DHT22;4095;48.942;9.104;2023-04-27T00:58:20;10.10;99.90
8105;DHT22;4095;48.942;9.104;2023-04-27T01:00:47;10.00;99.90
8105;DHT22;4095;48.942;9.104;2023-04-27T01:03:12;10.10;99.90
8105;DHT22;4095;48.942;9.104;2023-04-27T01:05:38;10.00;99.90
8105;DHT22;4095;48.942;9.104;2023-04-27T01:08:04;10.00;99.90
8105;DHT22;4095;48.942;9.104;2023-04-27T01:10:29;10.00;99.90
8105;DHT22;4095;48.942;9.104;2023-04-27T01:12:55;10.00;99.90
8105;DHT22;4095;48.942;9.104;2023-04-27T01:15:21;10.00;99.90
8105;DHT22;4095;48.942;9.104;2023-04-27T01:17:47;10.00;99.90
8105;DHT22;4095;48.942;9.104;2023-04-27T01:20:13;10.00;99.90
8105;DHT22;4095;48.942;9.104;2023-04-27T01:22:39;10.00;99.90
8105;DHT22;4095;48.942;9.104;2023-04-27T01:25:05;10.00;99.90
8105;DHT22;4095;48.942;9.104;2023-04-27T01:27:32;10.00;99.90
8105;DHT22;4095;48.942;9.104;2023-04-27T01:29:58;9.90;99.90
8105;DHT22;4095;48.942;9.104;2023-04-27T01:32:23;9.90;99.90
8105;DHT22;4095;48.942;9.104;2023-04-27T01:34:49;9.90;99.90
8105;DHT22;4095;48.942;9.104;2023-04-27T01:37:14;9.90;99.90
8105;DHT22;4095;48.942;9.104;2023-04-27T01:39:40;9.90;99.90
8105;DHT22;4095;48.942;9.104;2023-04-27T01:42:05;9.90;99.90
8105;DHT22;4095;48.942;9.104;2023-04-27T01:44:31;9.90;99.90
8105;DHT22;4095;48.942;9.104;2023-04-27T01:46:57;9.90;99.90
8105;DHT22;4095;48.942;9.104;2023-04-27T01:49:22;9.90;99.90
8105;DHT22;4095;48.942;9.104;2023-04-27T01:51:48;9.80;99.90
8105;DHT22;4095;48.942;9.104;2023-04-27T01:54:13;9.80;99.90
8105;DHT22;4095;48.942;9.104;2023-04-27T01:56:39;9.80;99.90
8105;DHT22;4095;48.942;9.104;2023-04-27T01:59:04;9.80;99.90
8105;DHT22;4095;48.942;9.104;2023-04-27T02:01:30;9.80;99.90
8105;DHT22;4095;48.942;9.104;2023-04-27T02:03:56;9.80;99.90
8105;DHT22;4095;48.942;9.104;2023-04-27T02:06:21;9.70;99.90
8105;DHT22;4095;48.942;9.104;2023-04-27T02:08:47;9.70;99.90
8105;DHT22;4095;48.942;9.104;2023-04-27T02:11:13;9.70;99.90
8105;DHT22;4095;48.942;9.104;2023-04-27T02:13:38;9.70;99.90
8105;DHT22;4095;48.942;9.104;2023-04-27T02:16:04;9.70;99.90
8105;DHT22;4095;48.942;9.104;2023-04-27T02:18:30;9.70;99.90
8105;DHT22;4095;48.942;9.104;2023-04-27T02:20:57;9.70;99.90
8105;DHT22;4095;48.942;9.104;2023-04-27T02:23:22;9.70;99.90
8105;DHT22;4095;48.942;9.104;2023-04-27T02:25:48;9.70;99.90
8105;DHT22;4095;48.942;9.104;2023-04-27T02:28:13;9.70;99.90
8105;DHT22;4095;48.942;9.104;2023-04-27T02:30:39;9.70;99.90
8105;DHT22;4095;48.942;9.104;2023-04-27T02:33:05;9.70;99.90
8105;DHT22;4095;48.942;9.104;2023-04-27T02:35:30;9.70;99.90
8105;DHT22;4095;48.942;9.104;2023-04-27T02:37:59;9.70;99.90
8105;DHT22;4095;48.942;9.104;2023-04-27T02:40:24;9.80;99.90
8105;DHT22;4095;48.942;9.104;2023-04-27T02:42:50;9.70;99.90
8105;DHT22;4095;48.942;9.104;2023-04-27T02:45:16;9.70;99.90
8105;DHT22;4095;48.942;9.104;2023-04-27T02:47:41;9.80;99.90
8105;DHT22;4095;48.942;9.104;2023-04-27T02:50:07;9.70;99.90
8105;DHT22;4095;48.942;9.104;2023-04-27T02:52:33;9.70;99.90
8105;DHT22;4095;48.942;9.104;2023-04-27T02:54:59;9.70;99.90
8105;DHT22;4095;48.942;9.104;2023-04-27T02:57:24;9.70;99.90
8105;DHT22;4095;48.942;9.104;2023-04-27T02:59:50;9.70;99.90
8105;DHT22;4095;48.942;9.104;2023-04-27T03:02:15;9.70;99.90
8105;DHT22;4095;48.942;9.104;2023-04-27T03:04:41;9.70;99.90
8105;DHT22;4095;48.942;9.104;2023-04-27T03:07:07;9.70;99.90
8105;DHT22;4095;48.942;9.104;2023-04-27T03:09:33;9.70;99.90
8105;DHT22;4095;48.942;9.104;2023-04-27T03:11:58;9.70;99.90
8105;DHT22;4095;48.942;9.104;2023-04-27T03:14:24;9.70;99.90
8105;DHT22;4095;48.942;9.104;2023-04-27T03:16:50;9.70;99.90
8105;DHT22;4095;48.942;9.104;2023-04-27T03:19:16;9.70;99.90
8105;DHT22;4095;48.942;9.104;2023-04-27T03:21:41;9.70;99.90
8105;DHT22;4095;48.942;9.104;2023-04-27T03:24:07;9.70;99.90
8105;DHT22;4095;48.942;9.104;2023-04-27T03:26:32;9.70;99.90
8105;DHT22;4095;48.942;9.104;2023-04-27T03:28:58;9.70;99.90
8105;DHT22;4095;48.942;9.104;2023-04-27T03:31:24;9.70;99.90
8105;DHT22;4095;48.942;9.104;2023-04-27T03:33:49;9.70;99.90
8105;DHT22;4095;48.942;9.104;2023-04-27T03:36:15;9.70;99.90
8105;DHT22;4095;48.942;9.104;2023-04-27T03:38:40;9.70;99.90
8105;DHT22;4095;48.942;9.104;2023-04-27T03:41:06;9.70;99.90
8105;DHT22;4095;48.942;9.104;2023-04-27T03:43:32;9.70;99.90
8105;DHT22;4095;48.942;9.104;2023-04-27T03:45:57;9.70;99.90
8105;DHT22;4095;48.942;9.104;2023-04-27T03:48:23;9.70;99.90
8105;DHT22;4095;48.942;9.104;2023-04-27T03:50:48;9.70;99.90
8105;DHT22;4095;48.942;9.104;2023-04-27T03:53:14;9.80;99.90
8105;DHT22;4095;48.942;9.104;2023-04-27T03:55:41;9.70;99.90
8105;DHT22;4095;48.942;9.104;2023-04-27T03:58:07;9.70;99.90
8105;DHT22;4095;48.942;9.104;2023-04-27T04:00:35;9.70;99.90
8105;DHT22;4095;48.942;9.104;2023-04-27T04:03:01;9.70;99.90
8105;DHT22;4095;48.942;9.104;2023-04-27T04:05:27;9.70;99.90
8105;DHT22;4095;48.942;9.104;2023-04-27T04:07:55;9.70;99.90
8105;DHT22;4095;48.942;9.104;2023-04-27T04:10:21;9.70;99.90
8105;DHT22;4095;48.942;9.104;2023-04-27T04:12:46;9.70;99.90
8105;DHT22;4095;48.942;9.104;2023-04-27T04:15:12;9.70;99.90
8105;DHT22;4095;48.942;9.104;2023-04-27T04:17:37;9.70;99.90
8105;DHT22;4095;48.942;9.104;2023-04-27T04:20:03;9.70;99.90
8105;DHT22;4095;48.942;9.104;2023-04-27T04:22:33;9.70;99.90
8105;DHT22;4095;48.942;9.104;2023-04-27T04:24:59;9.70;99.90
8105;DHT22;4095;48.942;9.104;2023-04-27T04:27:25;9.70;99.90
8105;DHT22;4095;48.942;9.104;2023-04-27T04:29:50;9.70;99.90
8105;DHT22;4095;48.942;9.104;2023-04-27T04:32:16;9.80;99.90
8105;DHT22;4095;48.942;9.104;2023-04-27T04:34:47;9.80;99.90
8105;DHT22;4095;48.942;9.104;2023-04-27T04:37:15;9.80;99.90
8105;DHT22;4095;48.942;9.104;2023-04-27T04:39:43;9.80;99.90
8105;DHT22;4095;48.942;9.104;2023-04-27T04:42:08;9.80;99.90
8105;DHT22;4095;48.942;9.104;2023-04-27T04:44:34;9.80;99.90
8105;DHT22;4095;48.942;9.104;2023-04-27T04:47:00;9.80;99.90
8105;DHT22;4095;48.942;9.104;2023-04-27T04:49:25;9.80;99.90
8105;DHT22;4095;48.942;9.104;2023-04-27T04:51:51;9.80;99.90
8105;DHT22;4095;48.942;9.104;2023-04-27T04:54:16;9.80;99.90
8105;DHT22;4095;48.942;9.104;2023-04-27T04:56:42;9.80;99.90
8105;DHT22;4095;48.942;9.104;2023-04-27T04:59:08;9.80;99.90
8105;DHT22;4095;48.942;9.104;2023-04-27T05:01:33;9.80;99.90
8105;DHT22;4095;48.942;9.104;2023-04-27T05:03:59;9.80;99.90
8105;DHT22;4095;48.942;9.104;2023-04-27T05:06:25;9.80;99.90
8105;DHT22;4095;48.942;9.104;2023-04-27T05:08:50;9.90;99.90
8105;DHT22;4095;48.942;9.104;2023-04-27T05:11:17;9.90;99.90
8105;DHT22;4095;48.942;9.104;2023-04-27T05:13:42;10.00;99.90
8105;DHT22;4095;48.942;9.104;2023-04-27T05:16:08;10.00;99.90
8105;DHT22;4095;48.942;9.104;2023-04-27T05:18:34;10.00;99.90
8105;DHT22;4095;48.942;9.104;2023-04-27T05:21:00;10.10;99.90
8105;DHT22;4095;48.942;9.104;2023-04-27T05:23:25;10.10;99.90
8105;DHT22;4095;48.942;9.104;2023-04-27T05:25:52;10.10;99.90
8105;DHT22;4095;48.942;9.104;2023-04-27T05:28:17;10.10;99.90
8105;DHT22;4095;48.942;9.104;2023-04-27T05:30:43;10.20;99.90
8105;DHT22;4095;48.942;9.104;2023-04-27T05:33:08;10.20;99.90
8105;DHT22;4095;48.942;9.104;2023-04-27T05:35:34;10.20;99.90
8105;DHT22;4095;48.942;9.104;2023-04-27T05:38:00;10.20;99.90
8105;DHT22;4095;48.942;9.104;2023-04-27T05:40:26;10.30;99.90
8105;DHT22;4095;48.942;9.104;2023-04-27T05:42:52;10.40;99.90
8105;DHT22;4095;48.942;9.104;2023-04-27T05:45:18;10.40;99.90
8105;DHT22;4095;48.942;9.104;2023-04-27T05:47:43;10.40;99.90
8105;DHT22;4095;48.942;9.104;2023-04-27T05:50:09;10.50;99.90
8105;DHT22;4095;48.942;9.104;2023-04-27T05:52:35;10.50;99.90
8105;DHT22;4095;48.942;9.104;2023-04-27T05:55:01;10.60;99.80
8105;DHT22;4095;48.942;9.104;2023-04-27T05:57:27;10.60;99.90
8105;DHT22;4095;48.942;9.104;2023-04-27T05:59:53;10.70;99.90
8105;DHT22;4095;48.942;9.104;2023-04-27T06:02:19;10.70;99.90
8105;DHT22;4095;48.942;9.104;2023-04-27T06:04:45;10.80;99.90
8105;DHT22;4095;48.942;9.104;2023-04-27T06:07:12;10.80;99.90
8105;DHT22;4095;48.942;9.104;2023-04-27T06:09:38;10.80;99.90
8105;DHT22;4095;48.942;9.104;2023-04-27T06:12:07;10.90;99.90
8105;DHT22;4095;48.942;9.104;2023-04-27T06:14:35;10.90;99.90
8105;DHT22;4095;48.942;9.104;2023-04-27T06:17:01;11.00;99.90
8105;DHT22;4095;48.942;9.104;2023-04-27T06:19:27;11.10;99.90
8105;DHT22;4095;48.942;9.104;2023-04-27T06:21:54;11.20;99.90
8105;DHT22;4095;48.942;9.104;2023-04-27T06:24:20;11.20;99.90
8105;DHT22;4095;48.942;9.104;2023-04-27T06:26:47;11.20;99.70
8105;DHT22;4095;48.942;9.104;2023-04-27T06:29:13;11.30;99.90
8105;DHT22;4095;48.942;9.104;2023-04-27T06:31:39;11.40;99.90
8105;DHT22;4095;48.942;9.104;2023-04-27T06:34:04;11.40;99.50
8105;DHT22;4095;48.942;9.104;2023-04-27T06:36:31;11.50;99.40
8105;DHT22;4095;48.942;9.104;2023-04-27T06:38:56;11.60;99.60
8105;DHT22;4095;48.942;9.104;2023-04-27T06:41:23;11.70;99.70
8105;DHT22;4095;48.942;9.104;2023-04-27T06:43:49;11.70;99.70
8105;DHT22;4095;48.942;9.104;2023-04-27T06:46:14;11.80;99.90
8105;DHT22;4095;48.942;9.104;2023-04-27T06:48:40;11.90;99.30
8105;DHT22;4095;48.942;9.104;2023-04-27T06:51:06;12.00;99.30
8105;DHT22;4095;48.942;9.104;2023-04-27T06:53:32;12.00;99.30
8105;DHT22;4095;48.942;9.104;2023-04-27T06:55:57;12.10;99.40
8105;DHT22;4095;48.942;9.104;2023-04-27T06:58:23;12.20;99.50
8105;DHT22;4095;48.942;9.104;2023-04-27T07:00:49;12.30;99.50
8105;DHT22;4095;48.942;9.104;2023-04-27T07:03:15;12.30;98.90
8105;DHT22;4095;48.942;9.104;2023-04-27T07:05:41;12.40;99.00
8105;DHT22;4095;48.942;9.104;2023-04-27T07:08:06;12.50;99.00
8105;DHT22;4095;48.942;9.104;2023-04-27T07:10:32;12.60;98.70
8105;DHT22;4095;48.942;9.104;2023-04-27T07:12:57;12.60;98.10
8105;DHT22;4095;48.942;9.104;2023-04-27T07:15:23;12.60;98.10
8105;DHT22;4095;48.942;9.104;2023-04-27T07:17:52;12.70;98.80
8105;DHT22;4095;48.942;9.104;2023-04-27T07:20:21;12.80;98.70
8105;DHT22;4095;48.942;9.104;2023-04-27T07:22:46;12.90;99.00
8105;DHT22;4095;48.942;9.104;2023-04-27T07:25:12;12.90;98.20
8105;DHT22;4095;48.942;9.104;2023-04-27T07:27:38;13.00;98.30
8105;DHT22;4095;48.942;9.104;2023-04-27T07:30:04;13.10;98.30
8105;DHT22;4095;48.942;9.104;2023-04-27T07:32:33;13.10;98.10
8105;DHT22;4095;48.942;9.104;2023-04-27T07:34:58;13.30;98.80
8105;DHT22;4095;48.942;9.104;2023-04-27T07:37:24;13.30;98.70
8105;DHT22;4095;48.942;9.104;2023-04-27T07:39:51;13.40;97.80
8105;DHT22;4095;48.942;9.104;2023-04-27T07:42:18;13.50;98.20
8105;DHT22;4095;48.942;9.104;2023-04-27T07:44:43;13.70;98.30
8105;DHT22;4095;48.942;9.104;2023-04-27T07:47:09;13.70;97.00
8105;DHT22;4095;48.942;9.104;2023-04-27T07:49:35;13.90;96.90
8105;DHT22;4095;48.942;9.104;2023-04-27T07:52:02;14.00;97.00
8105;DHT22;4095;48.942;9.104;2023-04-27T07:54:28;14.00;96.00
8105;DHT22;4095;48.942;9.104;2023-04-27T07:56:54;14.00;96.40
8105;DHT22;4095;48.942;9.104;2023-04-27T07:59:20;14.00;96.40
8105;DHT22;4095;48.942;9.104;2023-04-27T08:01:46;14.10;96.80
8105;DHT22;4095;48.942;9.104;2023-04-27T08:04:11;14.10;96.10
8105;DHT22;4095;48.942;9.104;2023-04-27T08:06:37;14.20;96.20
8105;DHT22;4095;48.942;9.104;2023-04-27T08:09:03;14.30;96.90
8105;DHT22;4095;48.942;9.104;2023-04-27T08:11:29;14.40;96.10
8105;DHT22;4095;48.942;9.104;2023-04-27T08:13:55;14.50;96.30
8105;DHT22;4095;48.942;9.104;2023-04-27T08:16:21;14.50;95.40
8105;DHT22;4095;48.942;9.104;2023-04-27T08:18:48;14.70;96.20
8105;DHT22;4095;48.942;9.104;2023-04-27T08:21:14;14.90;96.80
8105;DHT22;4095;48.942;9.104;2023-04-27T08:23:39;15.00;95.50
8105;DHT22;4095;48.942;9.104;2023-04-27T08:26:05;15.00;94.90
8105;DHT22;4095;48.942;9.104;2023-04-27T08:28:30;15.00;94.70
8105;DHT22;4095;48.942;9.104;2023-04-27T08:30:56;15.20;96.30
8105;DHT22;4095;48.942;9.104;2023-04-27T08:33:21;15.30;95.20
8105;DHT22;4095;48.942;9.104;2023-04-27T08:35:47;15.30;94.60
8105;DHT22;4095;48.942;9.104;2023-04-27T08:38:13;15.50;95.70
8105;DHT22;4095;48.942;9.104;2023-04-27T08:40:44;15.60;94.70
8105;DHT22;4095;48.942;9.104;2023-04-27T08:43:10;15.60;94.10
8105;DHT22;4095;48.942;9.104;2023-04-27T08:45:36;15.80;95.60
8105;DHT22;4095;48.942;9.104;2023-04-27T08:48:02;15.90;95.20
8105;DHT22;4095;48.942;9.104;2023-04-27T08:50:27;16.00;95.20
8105;DHT22;4095;48.942;9.104;2023-04-27T08:52:54;16.20;95.00
8105;DHT22;4095;48.942;9.104;2023-04-27T08:55:19;16.30;95.10
8105;DHT22;4095;48.942;9.104;2023-04-27T08:57:56;16.30;92.70
8105;DHT22;4095;48.942;9.104;2023-04-27T09:00:23;16.30;92.00
8105;DHT22;4095;48.942;9.104;2023-04-27T09:02:49;16.30;91.70
8105;DHT22;4095;48.942;9.104;2023-04-27T09:05:16;16.50;93.00
8105;DHT22;4095;48.942;9.104;2023-04-27T09:07:54;16.60;91.00
8105;DHT22;4095;48.942;9.104;2023-04-27T09:10:20;16.60;90.20
8105;DHT22;4095;48.942;9.104;2023-04-27T09:12:57;16.70;91.40
8105;DHT22;4095;48.942;9.104;2023-04-27T09:15:23;16.70;87.10
8105;DHT22;4095;48.942;9.104;2023-04-27T09:17:55;16.70;88.20
8105;DHT22;4095;48.942;9.104;2023-04-27T09:20:21;16.80;88.90
8105;DHT22;4095;48.942;9.104;2023-04-27T09:22:49;16.90;86.50
8105;DHT22;4095;48.942;9.104;2023-04-27T09:25:29;16.90;85.20
8105;DHT22;4095;48.942;9.104;2023-04-27T09:27:56;17.00;86.80
8105;DHT22;4095;48.942;9.104;2023-04-27T09:30:22;17.10;86.20
8105;DHT22;4095;48.942;9.104;2023-04-27T09:32:56;17.30;86.20
8105;DHT22;4095;48.942;9.104;2023-04-27T09:35:27;17.40;86.90
8105;DHT22;4095;48.942;9.104;2023-04-27T09:37:53;17.40;84.80
8105;DHT22;4095;48.942;9.104;2023-04-27T09:40:21;17.60;84.30
8105;DHT22;4095;48.942;9.104;2023-04-27T09:42:51;17.60;84.60
8105;DHT22;4095;48.942;9.104;2023-04-27T09:45:17;17.80;87.30
8105;DHT22;4095;48.942;9.104;2023-04-27T09:47:44;18.00;88.90
8105;DHT22;4095;48.942;9.104;2023-04-27T09:50:12;18.20;86.60
8105;DHT22;4095;48.942;9.104;2023-04-27T09:52:38;18.40;88.70
8105;DHT22;4095;48.942;9.104;2023-04-27T09:55:05;18.60;86.20
8105;DHT22;4095;48.942;9.104;2023-04-27T10:09:22;19.00;77.90
8105;DHT22;4095;48.942;9.104;2023-04-27T10:11:52;19.10;81.90
8105;DHT22;4095;48.942;9.104;2023-04-27T10:14:20;19.10;80.70
8105;DHT22;4095;48.942;9.104;2023-04-27T10:16:54;19.10;76.80
8105;DHT22;4095;48.942;9.104;2023-04-27T10:19:22;19.10;78.20
8105;DHT22;4095;48.942;9.104;2023-04-27T10:22:01;19.30;81.30
8105;DHT22;4095;48.942;9.104;2023-04-27T10:27:03;19.80;77.50
8105;DHT22;4095;48.942;9.104;2023-04-27T10:29:46;19.80;76.60
8105;DHT22;4095;48.942;9.104;2023-04-27T10:32:23;19.90;78.70
8105;DHT22;4095;48.942;9.104;2023-04-27T10:35:11;20.00;75.00
8105;DHT22;4095;48.942;9.104;2023-04-27T10:37:42;20.10;76.80
8105;DHT22;4095;48.942;9.104;2023-04-27T10:40:09;20.30;74.90
8105;DHT22;4095;48.942;9.104;2023-04-27T10:42:39;20.50;78.30
8105;DHT22;4095;48.942;9.104;2023-04-27T10:45:06;20.70;75.00
8105;DHT22;4095;48.942;9.104;2023-04-27T10:47:39;20.70;73.20
8105;DHT22;4095;48.942;9.104;2023-04-27T10:50:07;20.80;80.90
8105;DHT22;4095;48.942;9.104;2023-04-27T10:52:33;20.90;74.40
8105;DHT22;4095;48.942;9.104;2023-04-27T10:55:25;21.00;77.00
8105;DHT22;4095;48.942;9.104;2023-04-27T10:57:52;21.10;75.10
8105;DHT22;4095;48.942;9.104;2023-04-27T11:00:29;21.30;74.20
8105;DHT22;4095;48.942;9.104;2023-04-27T11:02:57;21.50;77.20
8105;DHT22;4095;48.942;9.104;2023-04-27T11:05:33;21.50;74.30
8105;DHT22;4095;48.942;9.104;2023-04-27T11:08:08;21.70;71.10
8105;DHT22;4095;48.942;9.104;2023-04-27T11:10:37;21.90;76.60
8105;DHT22;4095;48.942;9.104;2023-04-27T11:13:07;22.10;75.40
8105;DHT22;4095;48.942;9.104;2023-04-27T11:15:57;22.30;74.10
8105;DHT22;4095;48.942;9.104;2023-04-27T11:18:30;22.20;72.90
8105;DHT22;4095;48.942;9.104;2023-04-27T11:21:15;22.20;73.40
8105;DHT22;4095;48.942;9.104;2023-04-27T11:23:42;22.50;75.60
8105;DHT22;4095;48.942;9.104;2023-04-27T11:26:13;22.70;69.90
8105;DHT22;4095;48.942;9.104;2023-04-27T11:28:39;22.90;71.90
8105;DHT22;4095;48.942;9.104;2023-04-27T11:31:06;23.00;72.80
8105;DHT22;4095;48.942;9.104;2023-04-27T11:33:31;23.20;71.80
8105;DHT22;4095;48.942;9.104;2023-04-27T11:35:57;23.00;70.20
8105;DHT22;4095;48.942;9.104;2023-04-27T11:38:24;22.90;72.30
8105;DHT22;4095;48.942;9.104;2023-04-27T11:41:04;22.80;71.50
8105;DHT22;4095;48.942;9.104;2023-04-27T11:43:31;22.70;72.10
8105;DHT22;4095;48.942;9.104;2023-04-27T11:45:57;22.80;71.40
8105;DHT22;4095;48.942;9.104;2023-04-27T11:48:24;23.00;70.70
8105;DHT22;4095;48.942;9.104;2023-04-27T11:50:50;23.10;68.40
8105;DHT22;4095;48.942;9.104;2023-04-27T11:53:31;22.90;69.60
8105;DHT22;4095;48.942;9.104;2023-04-27T11:56:01;22.90;69.10
8105;DHT22;4095;48.942;9.104;2023-04-27T11:58:31;22.80;68.30
8105;DHT22;4095;48.942;9.104;2023-04-27T12:00:57;22.80;69.40
8105;DHT22;4095;48.942;9.104;2023-04-27T12:03:23;22.70;68.40
8105;DHT22;4095;48.942;9.104;2023-04-27T12:05:50;22.70;70.30
8105;DHT22;4095;48.942;9.104;2023-04-27T12:08:16;22.70;67.70
8105;DHT22;4095;48.942;9.104;2023-04-27T12:10:43;22.80;66.90
8105;DHT22;4095;48.942;9.104;2023-04-27T12:13:09;22.80;69.80
8105;DHT22;4095;48.942;9.104;2023-04-27T12:15:36;23.00;69.90
8105;DHT22;4095;48.942;9.104;2023-04-27T12:18:01;23.10;68.70
8105;DHT22;4095;48.942;9.104;2023-04-27T12:20:27;23.20;70.30
8105;DHT22;4095;48.942;9.104;2023-04-27T12:22:53;23.20;67.30
8105;DHT22;4095;48.942;9.104;2023-04-27T12:25:19;23.20;69.90
8105;DHT22;4095;48.942;9.104;2023-04-27T12:27:45;23.40;68.70
8105;DHT22;4095;48.942;9.104;2023-04-27T12:30:12;23.20;67.70
8105;DHT22;4095;48.942;9.104;2023-04-27T12:32:42;23.20;66.10
8105;DHT22;4095;48.942;9.104;2023-04-27T12:35:08;23.30;66.70
8105;DHT22;4095;48.942;9.104;2023-04-27T12:37:37;23.30;69.30
8105;DHT22;4095;48.942;9.104;2023-04-27T12:40:03;23.40;71.40
8105;DHT22;4095;48.942;9.104;2023-04-27T12:42:33;23.10;67.50
8105;DHT22;4095;48.942;9.104;2023-04-27T12:44:59;22.90;71.30
8105;DHT22;4095;48.942;9.104;2023-04-27T12:47:24;22.90;72.50
8105;DHT22;4095;48.942;9.104;2023-04-27T12:49:50;22.80;67.10
8105;DHT22;4095;48.942;9.104;2023-04-27T12:52:16;22.70;71.00
8105;DHT22;4095;48.942;9.104;2023-04-27T12:54:41;22.60;69.20
8105;DHT22;4095;48.942;9.104;2023-04-27T12:57:07;22.50;72.10
8105;DHT22;4095;48.942;9.104;2023-04-27T12:59:37;22.40;70.50
8105;DHT22;4095;48.942;9.104;2023-04-27T13:02:03;22.20;71.80
8105;DHT22;4095;48.942;9.104;2023-04-27T13:04:30;22.10;72.20
8105;DHT22;4095;48.942;9.104;2023-04-27T13:06:56;22.10;71.20
8105;DHT22;4095;48.942;9.104;2023-04-27T13:09:26;22.10;71.20
8105;DHT22;4095;48.942;9.104;2023-04-27T13:11:52;22.00;70.90
8105;DHT22;4095;48.942;9.104;2023-04-27T13:14:18;22.00;70.80
8105;DHT22;4095;48.942;9.104;2023-04-27T13:16:44;21.80;71.40
8105;DHT22;4095;48.942;9.104;2023-04-27T13:19:10;21.70;70.60
8105;DHT22;4095;48.942;9.104;2023-04-27T13:21:36;21.50;71.10
8105;DHT22;4095;48.942;9.104;2023-04-27T13:24:01;21.50;72.30
8105;DHT22;4095;48.942;9.104;2023-04-27T13:26:27;21.50;70.40
8105;DHT22;4095;48.942;9.104;2023-04-27T13:28:53;21.40;69.40
8105;DHT22;4095;48.942;9.104;2023-04-27T13:31:18;21.30;71.30
8105;DHT22;4095;48.942;9.104;2023-04-27T13:33:44;21.30;74.10
8105;DHT22;4095;48.942;9.104;2023-04-27T13:36:10;21.30;72.70
8105;DHT22;4095;48.942;9.104;2023-04-27T13:38:36;21.20;70.30
8105;DHT22;4095;48.942;9.104;2023-04-27T13:41:03;21.20;73.50
8105;DHT22;4095;48.942;9.104;2023-04-27T13:43:29;21.10;70.10
8105;DHT22;4095;48.942;9.104;2023-04-27T13:45:59;20.90;70.40
8105;DHT22;4095;48.942;9.104;2023-04-27T13:48:26;20.90;71.70
8105;DHT22;4095;48.942;9.104;2023-04-27T13:50:53;20.70;70.70
8105;DHT22;4095;48.942;9.104;2023-04-27T13:53:18;20.60;70.30
8105;DHT22;4095;48.942;9.104;2023-04-27T13:55:45;20.70;72.90
8105;DHT22;4095;48.942;9.104;2023-04-27T13:58:10;20.80;72.40
8105;DHT22;4095;48.942;9.104;2023-04-27T14:00:37;20.90;72.70
8105;DHT22;4095;48.942;9.104;2023-04-27T14:03:03;20.90;73.10
8105;DHT22;4095;48.942;9.104;2023-04-27T14:05:29;20.90;73.10
8105;DHT22;4095;48.942;9.104;2023-04-27T14:07:56;20.90;72.90
8105;DHT22;4095;48.942;9.104;2023-04-27T14:10:22;20.90;73.20
8105;DHT22;4095;48.942;9.104;2023-04-27T14:12:47;20.90;72.90
8105;DHT22;4095;48.942;9.104;2023-04-27T14:15:13;20.70;70.40
8105;DHT22;4095;48.942;9.104;2023-04-27T14:17:39;20.70;71.80
8105;DHT22;4095;48.942;9.104;2023-04-27T14:20:05;20.80;78.20
8105;DHT22;4095;48.942;9.104;2023-04-27T14:22:34;20.90;75.40
8105;DHT22;4095;48.942;9.104;2023-04-27T14:25:00;20.80;75.70
8105;DHT22;4095;48.942;9.104;2023-04-27T14:27:26;20.80;74.90
8105;DHT22;4095;48.942;9.104;2023-04-27T14:29:52;20.80;72.50
8105;DHT22;4095;48.942;9.104;2023-04-27T14:32:17;20.70;75.30
8105;DHT22;4095;48.942;9.104;2023-04-27T14:34:43;20.70;75.10
8105;DHT22;4095;48.942;9.104;2023-04-27T14:37:08;20.70;76.70
8105;DHT22;4095;48.942;9.104;2023-04-27T14:39:34;20.70;77.00
8105;DHT22;4095;48.942;9.104;2023-04-27T14:42:00;20.60;74.80
8105;DHT22;4095;48.942;9.104;2023-04-27T14:44:26;20.50;75.50
8105;DHT22;4095;48.942;9.104;2023-04-27T14:46:52;20.50;73.80
8105;DHT22;4095;48.942;9.104;2023-04-27T14:49:18;20.50;77.00
8105;DHT22;4095;48.942;9.104;2023-04-27T14:51:44;20.50;75.80
8105;DHT22;4095;48.942;9.104;2023-04-27T14:54:09;20.40;75.80
8105;DHT22;4095;48.942;9.104;2023-04-27T14:56:35;20.50;78.60
8105;DHT22;4095;48.942;9.104;2023-04-27T14:59:01;20.50;78.70
8105;DHT22;4095;48.942;9.104;2023-04-27T15:01:27;20.40;76.20
8105;DHT22;4095;48.942;9.104;2023-04-27T15:03:54;20.40;76.30
8105;DHT22;4095;48.942;9.104;2023-04-27T15:06:20;20.40;75.30
8105;DHT22;4095;48.942;9.104;2023-04-27T15:08:46;20.40;74.70
8105;DHT22;4095;48.942;9.104;2023-04-27T15:11:12;20.30;77.90
8105;DHT22;4095;48.942;9.104;2023-04-27T15:13:38;20.30;75.90
8105;DHT22;4095;48.942;9.104;2023-04-27T15:16:03;20.30;74.80
8105;DHT22;4095;48.942;9.104;2023-04-27T15:18:31;20.20;74.10
8105;DHT22;4095;48.942;9.104;2023-04-27T15:20:58;20.10;77.00
8105;DHT22;4095;48.942;9.104;2023-04-27T15:23:24;20.10;77.10
8105;DHT22;4095;48.942;9.104;2023-04-27T15:25:53;20.10;78.30
8105;DHT22;4095;48.942;9.104;2023-04-27T15:28:19;20.00;75.60
8105;DHT22;4095;48.942;9.104;2023-04-27T15:30:45;20.10;78.10
8105;DHT22;4095;48.942;9.104;2023-04-27T15:33:12;20.20;81.30
8105;DHT22;4095;48.942;9.104;2023-04-27T15:35:38;20.20;78.90
8105;DHT22;4095;48.942;9.104;2023-04-27T15:38:06;20.30;77.20
8105;DHT22;4095;48.942;9.104;2023-04-27T15:40:32;20.30;78.40
8105;DHT22;4095;48.942;9.104;2023-04-27T15:42:58;20.30;78.40
8105;DHT22;4095;48.942;9.104;2023-04-27T15:45:24;20.30;76.60
8105;DHT22;4095;48.942;9.104;2023-04-27T15:47:49;20.30;76.60
8105;DHT22;4095;48.942;9.104;2023-04-27T15:50:15;20.30;78.20
8105;DHT22;4095;48.942;9.104;2023-04-27T15:52:41;20.20;79.10
8105;DHT22;4095;48.942;9.104;2023-04-27T15:55:07;20.20;80.00
8105;DHT22;4095;48.942;9.104;2023-04-27T15:57:33;20.10;78.60
8105;DHT22;4095;48.942;9.104;2023-04-27T15:59:58;20.10;78.00
8105;DHT22;4095;48.942;9.104;2023-04-27T16:02:24;20.00;81.10
8105;DHT22;4095;48.942;9.104;2023-04-27T16:04:53;20.00;80.20
8105;DHT22;4095;48.942;9.104;2023-04-27T16:07:19;20.00;79.60
8105;DHT22;4095;48.942;9.104;2023-04-27T16:09:44;20.00;79.20
8105;DHT22;4095;48.942;9.104;2023-04-27T16:12:10;20.00;78.30
8105;DHT22;4095;48.942;9.104;2023-04-27T16:14:35;20.00;78.80
8105;DHT22;4095;48.942;9.104;2023-04-27T16:17:01;20.00;79.80